createdAt,value
2023-03-22T00:02:05.827Z,99723.88
2023-03-22T00:04:32.624Z,99721.47
2023-03-22T00:06:59.201Z,99722.62
2023-03-22T00:09:25.762Z,99720.50
2023-03-22T00:11:52.564Z,99718.59
2023-03-22T00:14:19.164Z,99721.53
2023-03-22T00:16:46.541Z,99717.41
2023-03-22T00:19:13.233Z,99725.38
2023-03-22T00:21:39.737Z,99725.97
2023-03-22T00:24:06.558Z,99727.06
2023-03-22T00:26:34.143Z,99720.66
2023-03-22T00:29:00.955Z,99723.56
2023-03-22T00:31:27.554Z,99715.19
2023-03-22T00:33:54.973Z,99720.97
2023-03-22T00:36:21.577Z,99719.47
2023-03-22T00:38:51.243Z,99727.13
2023-03-22T00:41:21.174Z,99731.69
2023-03-22T00:43:49.190Z,99720.53
2023-03-22T00:46:17.741Z,99734.06
2023-03-22T00:48:45.074Z,99726.50
2023-03-22T00:51:12.428Z,99741.25
2023-03-22T00:53:42.771Z,99744.91
2023-03-22T00:56:15.098Z,99731.88
2023-03-22T00:58:43.055Z,99751.19
2023-03-22T01:01:13.197Z,99738.22
2023-03-22T01:03:41.263Z,99753.47
2023-03-22T01:06:09.332Z,99760.56
2023-03-22T01:08:38.018Z,99764.09
2023-03-22T01:11:06.449Z,99762.97
2023-03-22T01:13:33.839Z,99759.59
2023-03-22T01:16:00.746Z,99774.31
2023-03-22T01:18:27.487Z,99773.34
2023-03-22T01:20:54.133Z,99776.72
2023-03-22T01:23:20.996Z,99760.06
2023-03-22T01:25:47.602Z,99787.69
2023-03-22T01:28:14.200Z,99788.94
2023-03-22T01:30:41.493Z,99787.25
2023-03-22T01:33:09.001Z,99789.31
2023-03-22T01:35:36.418Z,99790.16
2023-03-22T01:38:04.121Z,99790.91
2023-03-22T01:40:32.672Z,99795.87
2023-03-22T01:43:00.311Z,99806.44
2023-03-22T01:45:46.886Z,99805.81
2023-03-22T01:48:21.385Z,99808.13
2023-03-22T01:51:11.478Z,99809.34
2023-03-22T01:53:42.414Z,99814.97
2023-03-22T01:56:10.143Z,99815.12
2023-03-22T01:58:37.619Z,99826.97
2023-03-22T02:01:07.063Z,99825.66
2023-03-22T02:04:02.883Z,99841.09
2023-03-22T02:06:31.733Z,99832.84
2023-03-22T02:08:59.365Z,99838.81
2023-03-22T02:11:35.142Z,99841.09
2023-03-22T02:14:30.689Z,99825.59
2023-03-22T02:17:50.597Z,99809.19
2023-03-22T02:20:54.702Z,99839.56
2023-03-22T02:23:44.344Z,99843.84
2023-03-22T02:26:40.901Z,99834.37
2023-03-22T02:29:17.223Z,99845.06
2023-03-22T02:32:18.405Z,99845.06
2023-03-22T02:35:18.270Z,99847.28
2023-03-22T02:38:24.809Z,99854.09
2023-03-22T02:41:05.704Z,99853.63
2023-03-22T02:44:03.531Z,99855.44
2023-03-22T02:46:56.524Z,99856.44
2023-03-22T02:49:35.708Z,99852.31
2023-03-22T02:52:16.992Z,99864.91
2023-03-22T02:54:52.335Z,99867.19
2023-03-22T02:57:30.153Z,99868.44
2023-03-22T02:59:59.516Z,99862.94
2023-03-22T03:02:27.450Z,99862.00
2023-03-22T03:04:55.555Z,99871.97
2023-03-22T03:07:27.996Z,99855.09
2023-03-22T03:09:55.230Z,99875.75
2023-03-22T03:12:24.881Z,99882.28
2023-03-22T03:14:51.960Z,99883.41
2023-03-22T03:17:54.432Z,99881.53
2023-03-22T03:20:59.615Z,99880.00
2023-03-22T03:23:51.610Z,99893.66
2023-03-22T03:26:28.845Z,99894.13
2023-03-22T03:29:12.080Z,99890.56
2023-03-22T03:31:46.970Z,99898.41
2023-03-22T03:34:39.410Z,99898.34
2023-03-22T03:37:11.411Z,99902.97
2023-03-22T03:39:45.203Z,99906.78
2023-03-22T03:42:15.996Z,99898.84
2023-03-22T03:44:43.770Z,99909.87
2023-03-22T03:47:11.621Z,99911.22
2023-03-22T03:49:38.723Z,99919.97
2023-03-22T03:52:06.104Z,99915.66
2023-03-22T03:54:33.078Z,99920.25
2023-03-22T03:57:02.233Z,99923.38
2023-03-22T03:59:30.548Z,99925.66
2023-03-22T04:01:57.724Z,99903.91
2023-03-22T04:04:27.755Z,99931.19
2023-03-22T04:06:59.951Z,99938.59
2023-03-22T04:09:30.066Z,99941.34
2023-03-22T04:11:58.702Z,99933.72
2023-03-22T04:14:26.392Z,99941.81
2023-03-22T04:16:57.202Z,99949.19
2023-03-22T04:19:24.102Z,99945.50
2023-03-22T04:21:52.479Z,99949.00
2023-03-22T04:24:20.989Z,99957.97
2023-03-22T04:26:50.068Z,99954.22
2023-03-22T04:29:18.040Z,99962.87
2023-03-22T04:31:45.686Z,99963.47
2023-03-22T04:34:13.823Z,99964.84
2023-03-22T04:36:40.943Z,99969.06
2023-03-22T04:39:11.104Z,99972.78
2023-03-22T04:41:38.321Z,99973.03
2023-03-22T04:44:06.125Z,99973.19
2023-03-22T04:46:35.623Z,99978.06
2023-03-22T04:49:04.077Z,99976.16
2023-03-22T04:51:33.225Z,99977.19
2023-03-22T04:54:01.365Z,99963.84
2023-03-22T04:56:28.179Z,99987.94
2023-03-22T04:58:54.766Z,99995.91
2023-03-22T05:01:21.568Z,99999.03
2023-03-22T05:03:49.980Z,100005.00
2023-03-22T05:06:17.864Z,100006.25
2023-03-22T05:08:45.714Z,100004.53
2023-03-22T05:11:16.087Z,100011.19
2023-03-22T05:13:47.066Z,100014.50
2023-03-22T05:16:15.165Z,100016.63
2023-03-22T05:18:45.225Z,100013.25
2023-03-22T05:21:14.882Z,100022.66
2023-03-22T05:23:43.720Z,100022.31
2023-03-22T05:26:15.421Z,100025.81
2023-03-22T05:28:43.647Z,100024.28
2023-03-22T05:31:14.296Z,100024.59
2023-03-22T05:33:41.781Z,100037.31
2023-03-22T05:36:11.025Z,100031.31
2023-03-22T05:38:40.676Z,100026.59
2023-03-22T05:41:07.686Z,100039.66
2023-03-22T05:43:34.935Z,100043.25
2023-03-22T05:46:06.286Z,100040.37
2023-03-22T05:48:34.060Z,100039.34
2023-03-22T05:51:02.769Z,100045.19
2023-03-22T05:53:31.211Z,100038.06
2023-03-22T05:56:00.348Z,100043.47
2023-03-22T05:58:29.922Z,100046.09
2023-03-22T06:01:00.389Z,100049.00
2023-03-22T06:03:31.804Z,100051.03
2023-03-22T06:05:58.750Z,100050.03
2023-03-22T06:08:26.741Z,100057.69
2023-03-22T06:10:53.812Z,100049.88
2023-03-22T06:13:21.239Z,100054.56
2023-03-22T06:15:48.097Z,100047.75
2023-03-22T06:18:15.626Z,100057.00
2023-03-22T06:20:42.792Z,100064.06
2023-03-22T06:23:09.929Z,100065.47
2023-03-22T06:25:38.092Z,100066.75
2023-03-22T06:28:07.493Z,100064.19
2023-03-22T06:30:36.420Z,100068.56
2023-03-22T06:33:05.448Z,100062.25
2023-03-22T06:35:33.240Z,100069.81
2023-03-22T06:38:00.585Z,100073.91
2023-03-22T06:40:27.735Z,100077.34
2023-03-22T06:42:54.349Z,100086.34
2023-03-22T06:45:22.048Z,100085.81
2023-03-22T06:47:49.977Z,100087.31
2023-03-22T06:50:17.275Z,100082.56
2023-03-22T06:52:47.215Z,100091.06
2023-03-22T06:55:14.004Z,100083.03
2023-03-22T06:57:40.584Z,100091.75
2023-03-22T07:00:10.218Z,100090.94
2023-03-22T07:02:37.052Z,100093.53
2023-03-22T07:05:05.654Z,100090.25
2023-03-22T07:07:32.320Z,100101.66
2023-03-22T07:09:59.078Z,100095.47
2023-03-22T07:12:25.583Z,100098.22
2023-03-22T07:14:52.631Z,100099.13
2023-03-22T07:17:21.326Z,100095.75
2023-03-22T07:19:48.256Z,100100.72
2023-03-22T07:22:15.240Z,100104.81
2023-03-22T07:24:55.689Z,100084.41
2023-03-22T07:27:24.367Z,100111.97
2023-03-22T07:29:51.410Z,100112.13
2023-03-22T07:32:18.082Z,100120.91
2023-03-22T07:34:48.273Z,100124.59
2023-03-22T07:37:15.352Z,100128.94
2023-03-22T07:39:41.953Z,100128.63
2023-03-22T07:42:08.998Z,100129.84
2023-03-22T07:44:39.711Z,100137.06
2023-03-22T07:47:08.900Z,100135.87
2023-03-22T07:49:36.832Z,100139.66
2023-03-22T07:52:04.186Z,100119.06
2023-03-22T07:54:34.349Z,100141.78
2023-03-22T07:57:02.024Z,100154.97
2023-03-22T07:59:28.668Z,100146.09
2023-03-22T08:01:55.833Z,100157.88
2023-03-22T08:04:24.445Z,100154.81
2023-03-22T08:06:54.203Z,100158.50
2023-03-22T08:09:20.748Z,100163.94
2023-03-22T08:11:48.620Z,100175.03
2023-03-22T08:14:17.104Z,100178.97
2023-03-22T08:16:45.832Z,100183.00
2023-03-22T08:19:12.892Z,100176.56
2023-03-22T08:21:41.140Z,100174.25
2023-03-22T08:24:08.437Z,100182.22
2023-03-22T08:26:38.812Z,100181.00
2023-03-22T08:29:08.349Z,100177.03
2023-03-22T08:31:35.946Z,100180.78
2023-03-22T08:34:02.846Z,100187.91
2023-03-22T08:36:29.696Z,100197.47
2023-03-22T08:38:56.668Z,100182.91
2023-03-22T08:41:27.387Z,100179.13
2023-03-22T08:43:53.926Z,100187.75
2023-03-22T08:46:20.607Z,100187.75
2023-03-22T08:48:50.229Z,100195.19
2023-03-22T08:51:22.368Z,100185.34
2023-03-22T08:53:49.674Z,100187.44
2023-03-22T08:56:18.987Z,100188.06
2023-03-22T08:58:47.305Z,100192.31
2023-03-22T09:01:17.201Z,100183.88
2023-03-22T09:03:44.174Z,100187.34
2023-03-22T09:06:11.559Z,100185.13
2023-03-22T09:08:39.179Z,100187.16
2023-03-22T09:11:09.703Z,100183.69
2023-03-22T09:13:36.706Z,100189.81
2023-03-22T09:16:05.804Z,100189.19
2023-03-22T09:18:32.504Z,100189.69
2023-03-22T09:20:59.744Z,100189.50
2023-03-22T09:23:28.361Z,100197.06
2023-03-22T09:25:55.453Z,100186.78
2023-03-22T09:28:23.631Z,100200.31
2023-03-22T09:30:51.137Z,100173.22
2023-03-22T09:33:17.664Z,100197.09
2023-03-22T09:35:46.040Z,100191.50
2023-03-22T09:38:15.457Z,100201.31
2023-03-22T09:41:00.114Z,100202.78
2023-03-22T09:43:36.340Z,100209.69
2023-03-22T09:46:06.865Z,100202.06
2023-03-22T09:48:37.270Z,100218.72
2023-03-22T09:51:13.254Z,100213.28
2023-03-22T09:53:39.981Z,100219.63
2023-03-22T09:56:27.081Z,100219.19
2023-03-22T09:59:07.466Z,100213.00
2023-03-22T10:01:56.564Z,100216.28
2023-03-22T10:04:48.104Z,100216.13
2023-03-22T10:07:34.104Z,100214.53
2023-03-22T10:10:08.543Z,100216.69
2023-03-22T10:12:46.034Z,100216.19
2023-03-22T10:15:17.627Z,100217.88
2023-03-22T10:17:51.597Z,100208.50
2023-03-22T10:20:31.520Z,100213.66
2023-03-22T10:23:00.921Z,100224.28
2023-03-22T10:25:34.809Z,100213.56
2023-03-22T10:28:02.546Z,100213.16
2023-03-22T10:30:35.758Z,100210.13
2023-03-22T10:33:03.821Z,100203.09
2023-03-22T10:35:31.599Z,100209.16
2023-03-22T10:38:02.714Z,100211.78
2023-03-22T10:40:33.168Z,100207.03
2023-03-22T10:43:05.937Z,100209.69
2023-03-22T10:45:35.020Z,100208.31
2023-03-22T10:48:25.839Z,100205.75
2023-03-22T10:50:53.978Z,100190.09
2023-03-22T10:53:37.903Z,100197.84
2023-03-22T10:56:05.877Z,100199.25
2023-03-22T10:58:34.021Z,100203.28
2023-03-22T11:01:08.250Z,100204.13
2023-03-22T11:03:42.179Z,100197.38
2023-03-22T11:06:17.853Z,100205.47
2023-03-22T11:08:56.879Z,100198.94
2023-03-22T11:11:28.322Z,100198.44
2023-03-22T11:14:04.764Z,100204.41
2023-03-22T11:16:40.365Z,100203.44
2023-03-22T11:19:16.362Z,100206.06
2023-03-22T11:21:44.731Z,100209.69
2023-03-22T11:24:14.667Z,100204.62
2023-03-22T11:26:41.871Z,100213.56
2023-03-22T11:29:16.243Z,100212.06
2023-03-22T11:31:56.145Z,100210.47
2023-03-22T11:34:26.663Z,100207.25
2023-03-22T11:36:56.253Z,100207.28
2023-03-22T11:39:27.581Z,100207.28
2023-03-22T11:41:58.037Z,100211.69
2023-03-22T11:44:26.766Z,100213.94
2023-03-22T11:46:59.312Z,100207.22
2023-03-22T11:49:39.232Z,100205.75
2023-03-22T11:52:10.552Z,100219.34
2023-03-22T11:54:41.605Z,100206.09
2023-03-22T11:57:16.360Z,100205.28
2023-03-22T11:59:59.303Z,100204.25
2023-03-22T12:02:31.030Z,100207.50
2023-03-22T12:05:08.774Z,100191.50
2023-03-22T12:07:37.816Z,100204.81
2023-03-22T12:10:12.638Z,100203.25
2023-03-22T12:12:46.253Z,100191.72
2023-03-22T12:15:20.436Z,100204.13
2023-03-22T12:18:11.695Z,100197.03
2023-03-22T12:20:48.639Z,100202.87
2023-03-22T12:23:19.278Z,100192.38
2023-03-22T12:25:51.062Z,100194.16
2023-03-22T12:28:22.520Z,100179.34
2023-03-22T12:30:53.279Z,100187.53
2023-03-22T12:33:37.812Z,100189.66
2023-03-22T12:36:06.366Z,100182.63
2023-03-22T12:38:48.073Z,100192.31
2023-03-22T12:41:23.336Z,100185.53
2023-03-22T12:44:18.215Z,100184.53
2023-03-22T12:46:58.223Z,100178.28
2023-03-22T12:49:48.486Z,100194.78
2023-03-22T12:52:23.241Z,100176.59
2023-03-22T12:54:52.191Z,100186.94
2023-03-22T12:57:19.171Z,100189.63
2023-03-22T12:59:50.954Z,100194.16
2023-03-22T13:02:26.692Z,100187.91
2023-03-22T13:04:56.325Z,100189.87
2023-03-22T13:07:51.508Z,100196.81
2023-03-22T13:10:41.086Z,100193.78
2023-03-22T13:13:32.639Z,100184.72
2023-03-22T13:16:16.906Z,100185.94
2023-03-22T13:19:01.563Z,100185.19
2023-03-22T13:21:31.967Z,100190.50
2023-03-22T13:24:21.150Z,100187.53
2023-03-22T13:26:52.797Z,100184.75
2023-03-22T13:29:25.030Z,100193.78
2023-03-22T13:31:58.520Z,100188.19
2023-03-22T13:34:40.344Z,100183.88
2023-03-22T13:37:29.600Z,100183.53
2023-03-22T13:40:01.564Z,100188.25
2023-03-22T13:42:36.144Z,100185.66
2023-03-22T13:45:07.038Z,100185.75
2023-03-22T13:47:43.200Z,100182.75
2023-03-22T13:50:18.235Z,100183.75
2023-03-22T13:52:56.543Z,100181.22
2023-03-22T13:55:58.644Z,100177.53
2023-03-22T13:58:37.501Z,100178.00
2023-03-22T14:01:12.999Z,100180.19
2023-03-22T14:03:43.379Z,100178.19
2023-03-22T14:06:31.202Z,100182.91
2023-03-22T14:09:05.650Z,100172.13
2023-03-22T14:11:46.801Z,100161.84
2023-03-22T14:14:21.640Z,100162.19
2023-03-22T14:16:52.937Z,100168.94
2023-03-22T14:19:24.407Z,100153.78
